createdAt,value
2023-03-17T00:01:55.999Z,144515.28
2023-03-17T00:04:24.891Z,144613.34
2023-03-17T00:06:52.908Z,144621.84
2023-03-17T00:09:21.119Z,144609.72
2023-03-17T00:11:48.868Z,144607.31
2023-03-17T00:14:16.634Z,144597.63
2023-03-17T00:16:48.398Z,144624.28
2023-03-17T00:19:26.366Z,144612.16
2023-03-17T00:21:53.344Z,144641.22
2023-03-17T00:24:20.356Z,144636.38
2023-03-17T00:26:48.182Z,144624.28
2023-03-17T00:29:16.166Z,144641.22
2023-03-17T00:31:45.470Z,144632.72
2023-03-17T00:34:17.183Z,144647.28
2023-03-17T00:36:48.012Z,144636.38
2023-03-17T00:41:43.504Z,144641.22
2023-03-17T00:44:11.764Z,144620.63
2023-03-17T00:46:41.328Z,144615.81
2023-03-17T00:49:21.444Z,144597.63
2023-03-17T00:51:49.698Z,144612.16
2023-03-17T00:54:18.574Z,144595.19
2023-03-17T00:56:46.126Z,144587.94
2023-03-17T00:59:26.258Z,144568.53
2023-03-17T01:01:54.310Z,144585.50
2023-03-17T01:04:21.420Z,144539.50
2023-03-17T01:06:50.314Z,144539.50
2023-03-17T01:09:20.213Z,144520.13
2023-03-17T01:11:48.558Z,144549.19
2023-03-17T01:14:15.963Z,144505.59
2023-03-17T01:16:44.573Z,144547.97
2023-03-17T01:19:15.099Z,144549.19
2023-03-17T01:21:42.529Z,144541.88
2023-03-17T01:24:09.750Z,144537.06
2023-03-17T01:26:37.761Z,144522.53
2023-03-17T01:29:06.304Z,144517.69
2023-03-17T01:31:34.761Z,144540.69
2023-03-17T01:34:02.555Z,144528.63
2023-03-17T01:36:29.551Z,144524.97
2023-03-17T01:38:57.168Z,144533.47
2023-03-17T01:41:24.996Z,144423.25
2023-03-17T01:43:52.059Z,144520.13
2023-03-17T01:46:27.850Z,144526.16
2023-03-17T01:48:57.678Z,144529.81
2023-03-17T01:51:27.614Z,144524.97
2023-03-17T01:53:56.386Z,144524.97
2023-03-17T01:56:23.597Z,144532.22
2023-03-17T01:58:54.204Z,144532.22
2023-03-17T02:01:27.835Z,144529.81
2023-03-17T02:03:55.158Z,144532.22
2023-03-17T02:06:22.185Z,144527.38
2023-03-17T02:08:49.188Z,144528.63
2023-03-17T02:11:16.934Z,144505.59
2023-03-17T02:13:44.677Z,144527.38
2023-03-17T02:16:17.810Z,144488.66
2023-03-17T02:18:47.705Z,144486.22
2023-03-17T02:21:28.099Z,144472.88
2023-03-17T02:23:56.117Z,144372.44
2023-03-17T02:26:25.900Z,144472.88
2023-03-17T02:28:53.666Z,144454.72
2023-03-17T02:31:21.260Z,144481.38
2023-03-17T02:33:48.276Z,144474.13
2023-03-17T02:36:15.675Z,144459.56
2023-03-17T02:38:45.441Z,144411.19
2023-03-17T02:41:12.602Z,144440.22
2023-03-17T02:43:41.278Z,144331.28
2023-03-17T02:46:11.701Z,144423.25
2023-03-17T02:48:39.812Z,144424.50
2023-03-17T02:51:07.342Z,144425.69
2023-03-17T02:53:34.429Z,144403.91
2023-03-17T02:56:02.147Z,144424.50
2023-03-17T02:58:29.228Z,144411.19
2023-03-17T03:00:56.510Z,144344.59
2023-03-17T03:03:23.601Z,144429.34
2023-03-17T03:05:50.902Z,144411.19
2023-03-17T03:08:17.902Z,144409.94
2023-03-17T03:10:44.994Z,144420.84
2023-03-17T03:13:12.459Z,144416.00
2023-03-17T03:15:43.171Z,144417.22
2023-03-17T03:18:10.254Z,144413.56
2023-03-17T03:20:37.260Z,144406.34
2023-03-17T03:23:04.440Z,144382.09
2023-03-17T03:25:32.097Z,144379.69
2023-03-17T03:27:59.165Z,144382.09
2023-03-17T03:30:26.978Z,144399.06
2023-03-17T03:32:54.014Z,144413.56
2023-03-17T03:35:21.509Z,144411.19
2023-03-17T03:37:48.530Z,144413.56
2023-03-17T03:40:16.045Z,144389.38
2023-03-17T03:42:43.088Z,144406.34
2023-03-17T03:45:10.643Z,144374.88
2023-03-17T03:47:37.622Z,144380.91
2023-03-17T03:50:05.165Z,144382.09
2023-03-17T03:52:32.412Z,144370.03
2023-03-17T03:54:59.456Z,144361.56
2023-03-17T03:57:26.472Z,144345.78
2023-03-17T03:59:53.460Z,144353.06
2023-03-17T04:02:20.618Z,144361.56
2023-03-17T04:04:48.135Z,144303.47
2023-03-17T04:07:15.613Z,144321.59
2023-03-17T04:09:42.641Z,144302.25
2023-03-17T04:12:10.021Z,144308.28
2023-03-17T04:14:37.039Z,144309.50
2023-03-17T04:17:05.112Z,144324.06
2023-03-17T04:19:32.338Z,144338.56
2023-03-17T04:21:59.361Z,144322.81
2023-03-17T04:24:27.626Z,144328.88
2023-03-17T04:26:54.806Z,144332.47
2023-03-17T04:29:21.874Z,144337.31
2023-03-17T04:31:48.955Z,144333.72
2023-03-17T04:34:18.581Z,144344.59
2023-03-17T04:36:47.170Z,144353.06
2023-03-17T04:39:15.436Z,144359.09
2023-03-17T04:41:42.529Z,144337.31
2023-03-17T04:44:09.538Z,144321.59
2023-03-17T04:46:36.617Z,144319.16
2023-03-17T04:49:04.423Z,144294.97
2023-03-17T04:51:31.712Z,144276.84
2023-03-17T04:53:58.769Z,144282.88
2023-03-17T04:56:25.980Z,144285.31
2023-03-17T04:58:53.058Z,144273.19
2023-03-17T05:01:21.595Z,144270.81
2023-03-17T05:03:49.086Z,144284.13
2023-03-17T05:06:16.565Z,144258.69
2023-03-17T05:08:46.928Z,144303.47
2023-03-17T05:11:14.356Z,144278.03
2023-03-17T05:13:41.969Z,144267.16
2023-03-17T05:16:09.880Z,144282.88
2023-03-17T05:18:37.786Z,144294.97
2023-03-17T05:21:07.787Z,144278.03
2023-03-17T05:23:35.248Z,144198.22
2023-03-17T05:26:02.456Z,144269.59
2023-03-17T05:28:29.504Z,144269.59
2023-03-17T05:30:56.682Z,144270.81
2023-03-17T05:33:24.526Z,144279.28
2023-03-17T05:35:52.204Z,144286.50
2023-03-17T05:38:19.333Z,144298.63
2023-03-17T05:40:50.012Z,144296.19
2023-03-17T05:43:17.338Z,144299.81
2023-03-17T05:45:45.468Z,144320.41
2023-03-17T05:48:13.105Z,144316.78
2023-03-17T05:50:41.512Z,144314.34
2023-03-17T05:53:08.981Z,144297.44
2023-03-17T05:55:36.164Z,144211.53
2023-03-17T05:58:05.050Z,144309.50
2023-03-17T06:00:32.879Z,144299.81
2023-03-17T06:03:00.065Z,144284.13
2023-03-17T06:05:27.168Z,144297.44
2023-03-17T06:07:56.515Z,144297.44
2023-03-17T06:10:24.262Z,144316.78
2023-03-17T06:12:51.488Z,144315.56
2023-03-17T06:15:18.958Z,144319.16
2023-03-17T06:17:46.240Z,144319.16
2023-03-17T06:20:14.146Z,144338.56
2023-03-17T06:22:55.235Z,144340.97
2023-03-17T06:25:28.428Z,144359.09
2023-03-17T06:27:56.167Z,144373.63
2023-03-17T06:30:23.235Z,144374.88
2023-03-17T06:32:50.365Z,144396.66
2023-03-17T06:35:18.032Z,144385.75
2023-03-17T06:37:45.286Z,144430.53
2023-03-17T06:40:13.016Z,144437.81
2023-03-17T06:42:40.069Z,144459.56
2023-03-17T06:45:09.254Z,144489.84
2023-03-17T06:47:37.229Z,144522.53
2023-03-17T06:50:05.803Z,144546.78
2023-03-17T06:52:32.843Z,144551.63
2023-03-17T06:54:59.838Z,144561.31
2023-03-17T06:57:26.995Z,144577.03
2023-03-17T06:59:54.346Z,144597.63
2023-03-17T07:02:21.373Z,144617.00
2023-03-17T07:04:48.552Z,144641.22
2023-03-17T07:07:16.215Z,144660.63
2023-03-17T07:09:43.229Z,144706.69
2023-03-17T07:12:10.329Z,144717.59
2023-03-17T07:14:37.590Z,144781.78
2023-03-17T07:17:05.312Z,144784.25
2023-03-17T07:19:33.283Z,144755.13
2023-03-17T07:22:00.397Z,144818.16
2023-03-17T07:24:27.459Z,144831.50
2023-03-17T07:26:54.550Z,144824.25
2023-03-17T07:29:22.672Z,144839.97
2023-03-17T07:31:49.989Z,144875.16
2023-03-17T07:34:17.750Z,144883.63
2023-03-17T07:36:44.839Z,144917.56
2023-03-17T07:39:12.697Z,144946.69
2023-03-17T07:41:39.812Z,144958.78
2023-03-17T07:44:11.317Z,144973.31
2023-03-17T07:46:38.907Z,144981.81
2023-03-17T07:49:06.259Z,144987.91
2023-03-17T07:51:33.335Z,145004.84
2023-03-17T07:54:03.975Z,145014.53
2023-03-17T07:56:32.609Z,145030.34
2023-03-17T07:58:59.943Z,145041.22
2023-03-17T08:01:27.997Z,145052.16
2023-03-17T08:03:56.358Z,145071.56
2023-03-17T08:06:25.255Z,145092.22
2023-03-17T08:08:53.585Z,145122.50
2023-03-17T08:11:21.137Z,145146.78
2023-03-17T08:13:48.545Z,145168.59
2023-03-17T08:16:15.946Z,145211.09
2023-03-17T08:18:43.088Z,145240.19
2023-03-17T08:21:10.713Z,145264.50
2023-03-17T08:23:37.759Z,145292.47
2023-03-17T08:26:04.964Z,145339.78
2023-03-17T08:28:32.484Z,145354.34
2023-03-17T08:31:12.421Z,145451.44
2023-03-17T08:33:42.332Z,145400.47
2023-03-17T08:36:11.245Z,145538.94
2023-03-17T08:38:40.490Z,145543.78
2023-03-17T08:41:10.752Z,145503.69
2023-03-17T08:43:38.190Z,145555.91
2023-03-17T08:46:14.394Z,145546.19
2023-03-17T08:48:41.425Z,145521.91
2023-03-17T08:51:09.138Z,145504.91
2023-03-17T08:53:36.176Z,145468.47
2023-03-17T08:56:04.919Z,145470.91
2023-03-17T08:58:31.931Z,145495.19
2023-03-17T09:01:00.592Z,145475.78
2023-03-17T09:03:28.933Z,145463.63
2023-03-17T09:05:56.800Z,145427.19
2023-03-17T09:08:24.062Z,145514.59
2023-03-17T09:10:51.893Z,145515.84
2023-03-17T09:13:19.091Z,145541.34
2023-03-17T09:15:46.116Z,145558.34
2023-03-17T09:18:14.518Z,145585.09
2023-03-17T09:20:41.568Z,145605.72
2023-03-17T09:23:10.577Z,145619.06
2023-03-17T09:25:38.967Z,145608.16
2023-03-17T09:28:07.186Z,145628.78
2023-03-17T09:30:34.825Z,145640.97
2023-03-17T09:33:01.865Z,145654.31
2023-03-17T09:35:31.266Z,145682.25
2023-03-17T09:37:58.469Z,145706.59
2023-03-17T09:40:32.846Z,145733.34
2023-03-17T09:43:29.021Z,145738.19
2023-03-17T09:45:56.202Z,145775.91
2023-03-17T09:48:44.484Z,145828.16
2023-03-17T09:51:14.259Z,145823.31
2023-03-17T09:53:54.369Z,145749.16
2023-03-17T09:56:23.252Z,145842.75
2023-03-17T09:59:07.647Z,145869.50
2023-03-17T10:01:35.041Z,145887.72
2023-03-17T10:04:02.606Z,145925.41
2023-03-17T10:06:37.823Z,145959.50
2023-03-17T10:09:18.317Z,145975.28
2023-03-17T10:11:54.360Z,145905.97
2023-03-17T10:14:38.454Z,146025.16
2023-03-17T10:17:17.539Z,146073.81
2023-03-17T10:19:56.613Z,146088.47
2023-03-17T10:22:36.219Z,146094.53
2023-03-17T10:25:14.966Z,146118.88
2023-03-17T10:27:44.760Z,146100.63
2023-03-17T10:30:18.287Z,146120.09
2023-03-17T10:32:46.530Z,146090.91
2023-03-17T10:35:15.436Z,146155.41
2023-03-17T10:37:44.009Z,146159.06
2023-03-17T10:40:24.382Z,146187.03
2023-03-17T10:43:07.605Z,146199.19
2023-03-17T10:45:42.754Z,146194.31
2023-03-17T10:48:18.934Z,146222.28
2023-03-17T10:50:49.358Z,146225.97
2023-03-17T10:53:29.559Z,146229.63
2023-03-17T10:56:00.900Z,146224.75
2023-03-17T10:58:46.927Z,146229.63
2023-03-17T11:01:30.057Z,146222.28
2023-03-17T11:03:57.634Z,146227.22
2023-03-17T11:06:36.888Z,146232.06
2023-03-17T11:09:16.762Z,146246.66
2023-03-17T11:11:46.891Z,146262.47
2023-03-17T11:14:16.950Z,146296.56
2023-03-17T11:16:54.944Z,146341.63
2023-03-17T11:19:29.366Z,146374.50
2023-03-17T11:21:59.996Z,146412.28
2023-03-17T11:24:33.465Z,146441.47
2023-03-17T11:27:15.232Z,146480.47
2023-03-17T11:29:51.007Z,146519.47
2023-03-17T11:32:39.866Z,146538.94
2023-03-17T11:35:38.818Z,146562.09
2023-03-17T11:38:26.735Z,146587.66
2023-03-17T11:41:12.466Z,146626.66
2023-03-17T11:43:55.685Z,146648.59
2023-03-17T11:46:29.465Z,146670.53
2023-03-17T11:49:17.564Z,146704.66
2023-03-17T11:52:06.162Z,146724.19
2023-03-17T11:55:00.184Z,146707.09
2023-03-17T11:57:35.147Z,146647.41
2023-03-17T12:00:07.387Z,146725.44
2023-03-17T12:02:57.969Z,146802.19
2023-03-17T12:05:27.280Z,146836.34
2023-03-17T12:08:02.012Z,146885.13
2023-03-17T12:10:52.183Z,146885.13
2023-03-17T12:13:31.013Z,146916.78
2023-03-17T12:16:04.376Z,146911.91
2023-03-17T12:18:49.153Z,146921.72
2023-03-17T12:21:32.770Z,146876.59
2023-03-17T12:24:05.615Z,146897.28
2023-03-17T12:26:48.414Z,146904.63
2023-03-17T12:29:37.733Z,146888.75
2023-03-17T12:32:21.660Z,146848.56
2023-03-17T12:34:57.293Z,146955.84
2023-03-17T12:37:27.579Z,146975.34
2023-03-17T12:40:00.771Z,146999.81
2023-03-17T12:42:54.614Z,146963.16
2023-03-17T12:45:26.472Z,146985.09
2023-03-17T12:48:18.642Z,146948.50
2023-03-17T12:51:19.583Z,146929.00
2023-03-17T12:53:48.772Z,146926.59
2023-03-17T12:56:29.878Z,146919.25
2023-03-17T12:59:07.072Z,146980.22
2023-03-17T13:01:38.564Z,146985.09
2023-03-17T13:04:16.834Z,146994.94
2023-03-17T13:06:46.796Z,146994.94
2023-03-17T13:09:32.067Z,147046.16
2023-03-17T13:12:01.182Z,147053.44
2023-03-17T13:14:46.900Z,147001.00
2023-03-17T13:17:17.887Z,146982.69
2023-03-17T13:20:04.271Z,146909.50
2023-03-17T13:22:40.424Z,146921.72
2023-03-17T13:25:26.622Z,146999.81
2023-03-17T13:27:53.793Z,146987.59
2023-03-17T13:30:26.843Z,146999.81
2023-03-17T13:33:02.435Z,147024.19
2023-03-17T13:35:44.677Z,147047.38
2023-03-17T13:39:18.626Z,147051.03
2023-03-17T13:42:01.128Z,147064.44
2023-03-17T13:44:54.171Z,147052.25
2023-03-17T13:47:24.549Z,147104.66
2023-03-17T13:49:59.652Z,147129.09
2023-03-17T13:52:49.460Z,147166.91
2023-03-17T13:55:20.301Z,147133.97
2023-03-17T13:58:11.089Z,147194.97
2023-03-17T14:00:41.521Z,147143.75
2023-03-17T14:03:17.445Z,147168.13
2023-03-17T14:05:49.377Z,147135.19
2023-03-17T14:08:22.215Z,147160.84
2023-03-17T14:10:59.539Z,147126.66
2023-03-17T14:13:38.534Z,147154.69
2023-03-17T14:16:15.794Z,147124.22
2023-03-17T14:18:49.635Z,147060.78
2023-03-17T14:21:29.334Z,147033.94
2023-03-17T14:23:58.757Z,147019.31
2023-03-17T14:26:29.390Z,147013.19
2023-03-17T14:29:01.052Z,147013.19
2023-03-17T14:31:29.209Z,146911.91
2023-03-17T14:33:59.069Z,147014.44
2023-03-17T14:36:28.618Z,147005.88
2023-03-17T14:38:56.760Z,146997.34
2023-03-17T14:41:26.938Z,146972.91
2023-03-17T14:43:59.005Z,146988.81
2023-03-17T14:46:31.156Z,146966.78
2023-03-17T14:49:14.224Z,146929.00
2023-03-17T14:51:42.097Z,146924.13
2023-03-17T14:54:30.392Z,146902.16
2023-03-17T14:57:04.932Z,146876.59
2023-03-17T14:59:40.954Z,146865.59
2023-03-17T15:02:24.371Z,146854.63
2023-03-17T15:04:54.069Z,146841.22
2023-03-17T15:07:42.320Z,146844.88
2023-03-17T15:10:19.458Z,146843.63
2023-03-17T15:12:48.192Z,146841.22
2023-03-17T15:15:28.655Z,146816.84
2023-03-17T15:17:58.047Z,146820.47
2023-03-17T15:20:25.524Z,146815.59
2023-03-17T15:22:55.241Z,146822.94
2023-03-17T15:25:45.248Z,146816.84
2023-03-17T15:28:18.172Z,146748.59
2023-03-17T15:30:48.480Z,146755.88
2023-03-17T15:33:27.947Z,146744.91
2023-03-17T15:36:00.225Z,146753.47
2023-03-17T15:38:28.056Z,146704.66
2023-03-17T15:40:55.617Z,146700.97
2023-03-17T15:43:23.184Z,146690.03
2023-03-17T15:46:16.783Z,146691.22
2023-03-17T15:48:43.806Z,146690.03
2023-03-17T15:51:10.796Z,146692.44
2023-03-17T15:53:37.876Z,146671.75
2023-03-17T15:56:06.057Z,146677.81
2023-03-17T15:58:33.126Z,146552.34
2023-03-17T16:01:01.337Z,146638.84
2023-03-17T16:03:33.955Z,146643.72
2023-03-17T16:06:02.713Z,146638.84
2023-03-17T16:08:30.100Z,146615.72
2023-03-17T16:10:57.308Z,146616.91
2023-03-17T16:13:24.475Z,146586.44
2023-03-17T16:15:57.493Z,146594.97
2023-03-17T16:18:37.564Z,146563.31
2023-03-17T16:21:05.116Z,146536.50
2023-03-17T16:23:36.894Z,146543.81
2023-03-17T16:26:14.637Z,146526.75
2023-03-17T16:28:45.381Z,146538.94
2023-03-17T16:31:30.062Z,146514.56
2023-03-17T16:33:57.576Z,146502.41
2023-03-17T16:36:25.333Z,146492.66
2023-03-17T16:38:52.966Z,146480.47
2023-03-17T16:41:24.279Z,146475.59
2023-03-17T16:43:55.097Z,146397.63
2023-03-17T16:46:22.609Z,146456.13
2023-03-17T16:48:50.824Z,146451.25
2023-03-17T16:51:18.477Z,146461.00
2023-03-17T16:53:46.457Z,146448.81
2023-03-17T16:56:17.719Z,146440.28
2023-03-17T16:58:45.588Z,146417.13
2023-03-17T17:01:16.233Z,146404.91
2023-03-17T17:03:44.088Z,146390.31
2023-03-17T17:06:14.221Z,146363.50
2023-03-17T17:08:42.863Z,146322.13
2023-03-17T17:11:12.918Z,146341.63
2023-03-17T17:13:44.100Z,146288.03
2023-03-17T17:16:26.579Z,146314.84
2023-03-17T17:18:54.177Z,146291.72
2023-03-17T17:21:21.358Z,146278.31
2023-03-17T17:23:48.444Z,146256.41
2023-03-17T17:26:15.668Z,146219.88
2023-03-17T17:28:42.751Z,146229.63
2023-03-17T17:31:10.658Z,146212.56
2023-03-17T17:33:38.136Z,146193.09
2023-03-17T17:36:11.510Z,146230.81
2023-03-17T17:38:38.665Z,146215.03
2023-03-17T17:41:06.853Z,146154.19
2023-03-17T17:44:08.061Z,146219.88
2023-03-17T17:46:35.291Z,146224.75
2023-03-17T17:49:03.391Z,146205.28
2023-03-17T17:51:32.563Z,146167.53
2023-03-17T17:53:59.583Z,146180.91
2023-03-17T17:56:26.655Z,146142.00
2023-03-17T17:58:53.703Z,146079.94
2023-03-17T18:01:22.538Z,146139.56
2023-03-17T18:03:49.722Z,146139.56
2023-03-17T18:06:17.843Z,146120.09
2023-03-17T18:08:45.496Z,146110.38
2023-03-17T18:11:12.712Z,146082.38
2023-03-17T18:13:40.866Z,146071.38
2023-03-17T18:16:12.174Z,146068.97
2023-03-17T18:18:42.234Z,146041.00
2023-03-17T18:21:09.682Z,146014.22
2023-03-17T18:23:46.727Z,145981.38
2023-03-17T18:26:15.545Z,145978.94
2023-03-17T18:28:43.402Z,145898.69
2023-03-17T18:31:14.316Z,145968.00
2023-03-17T18:33:43.362Z,145966.75
2023-03-17T18:36:11.338Z,145964.34
2023-03-17T18:38:38.813Z,145937.59
2023-03-17T18:41:07.122Z,145856.13
2023-03-17T18:43:34.191Z,145867.09
2023-03-17T18:46:01.217Z,145854.91
2023-03-17T18:48:28.353Z,145847.59
2023-03-17T18:50:55.493Z,145811.13
2023-03-17T18:53:22.854Z,145818.44
2023-03-17T18:55:49.831Z,145816.00
2023-03-17T18:58:17.062Z,145824.50
2023-03-17T19:00:44.281Z,145711.50
2023-03-17T19:03:11.315Z,145803.88
2023-03-17T19:05:39.390Z,145801.41
2023-03-17T19:08:06.701Z,145726.09
2023-03-17T19:10:34.202Z,145764.94
2023-03-17T19:13:02.034Z,145775.91
2023-03-17T19:15:29.068Z,145777.13
2023-03-17T19:17:56.084Z,145794.16
2023-03-17T19:20:23.094Z,145775.91
2023-03-17T19:22:53.128Z,145816.00
2023-03-17T19:25:21.169Z,145791.69
2023-03-17T19:27:48.214Z,145802.63
2023-03-17T19:30:15.729Z,145825.75
2023-03-17T19:32:43.525Z,145801.41
2023-03-17T19:35:11.574Z,145818.44
2023-03-17T19:37:38.851Z,145713.91
2023-03-17T19:40:09.598Z,145747.97
2023-03-17T19:42:36.985Z,145685.91
2023-03-17T19:45:05.126Z,145733.34
2023-03-17T19:47:32.189Z,145758.88
2023-03-17T19:49:59.385Z,145760.09
2023-03-17T19:52:26.478Z,145799.00
2023-03-17T19:54:53.505Z,145750.38
2023-03-17T19:57:20.869Z,145761.28
2023-03-17T19:59:48.035Z,145707.84
2023-03-17T20:02:15.921Z,145710.25
2023-03-17T20:04:43.123Z,145722.44
2023-03-17T20:07:10.590Z,145701.75
2023-03-17T20:09:37.912Z,145672.56
2023-03-17T20:12:05.754Z,145703.00
2023-03-17T20:14:32.867Z,145675.00
2023-03-17T20:16:59.846Z,145687.13
2023-03-17T20:19:27.489Z,145679.84
2023-03-17T20:21:54.944Z,145670.09
2023-03-17T20:24:22.625Z,145655.53
2023-03-17T20:26:50.031Z,145613.03
2023-03-17T20:29:17.645Z,145631.25
2023-03-17T20:31:44.715Z,145636.09
2023-03-17T20:34:12.200Z,145614.22
2023-03-17T20:36:42.267Z,145587.50
2023-03-17T20:39:14.661Z,145606.97
2023-03-17T20:41:41.688Z,145605.72
2023-03-17T20:44:08.816Z,145568.06
2023-03-17T20:46:36.026Z,145580.22
2023-03-17T20:49:04.024Z,145615.44
2023-03-17T20:51:32.270Z,145619.06
2023-03-17T20:54:00.661Z,145620.31
2023-03-17T20:56:29.794Z,145605.72
2023-03-17T20:58:58.300Z,145611.81
2023-03-17T21:01:25.545Z,145581.44
2023-03-17T21:03:53.395Z,145555.91
2023-03-17T21:06:20.674Z,145551.06
2023-03-17T21:08:47.699Z,145564.41
2023-03-17T21:11:17.809Z,145538.94
2023-03-17T21:13:44.944Z,145543.78
2023-03-17T21:16:21.532Z,145519.47
2023-03-17T21:18:48.561Z,145529.22
2023-03-17T21:21:16.516Z,145507.34
2023-03-17T21:23:43.968Z,145503.69
2023-03-17T21:26:12.247Z,145514.59
2023-03-17T21:28:41.521Z,145430.84
2023-03-17T21:31:10.682Z,145468.47
2023-03-17T21:33:38.100Z,145524.31
2023-03-17T21:36:06.084Z,145560.75
2023-03-17T21:38:33.125Z,145546.19
2023-03-17T21:41:30.357Z,145497.63
2023-03-17T21:43:57.997Z,145495.19
2023-03-17T21:46:25.502Z,145487.88
2023-03-17T21:48:53.942Z,145456.34
2023-03-17T21:51:20.990Z,145445.41
2023-03-17T21:53:48.489Z,145429.63
2023-03-17T21:56:16.137Z,145453.91
2023-03-17T21:58:43.216Z,145433.25
2023-03-17T22:01:11.474Z,145384.69
2023-03-17T22:03:39.851Z,145419.94
2023-03-17T22:06:07.304Z,145455.09
2023-03-17T22:08:34.694Z,145451.44
2023-03-17T22:11:07.336Z,145496.41
2023-03-17T22:13:34.814Z,145478.16
2023-03-17T22:16:02.122Z,145491.53
2023-03-17T22:18:29.122Z,145541.34
2023-03-17T22:20:57.589Z,145560.75
2023-03-17T22:23:26.293Z,145531.63
2023-03-17T22:25:53.428Z,145551.06
2023-03-17T22:28:20.478Z,145541.34
2023-03-17T22:30:47.501Z,145538.94
2023-03-17T22:33:15.373Z,145524.31
2023-03-17T22:35:42.447Z,145520.72
2023-03-17T22:38:11.392Z,145520.72
2023-03-17T22:40:38.624Z,145430.84
2023-03-17T22:43:05.729Z,145473.31
2023-03-17T22:45:32.740Z,145476.97
2023-03-17T22:47:59.804Z,145464.81
2023-03-17T22:50:27.145Z,145390.75
2023-03-17T22:52:54.190Z,145405.31
2023-03-17T22:55:21.376Z,145464.81
2023-03-17T22:57:48.594Z,145427.19
2023-03-17T23:00:16.989Z,145310.66
2023-03-17T23:02:46.234Z,145436.88
2023-03-17T23:05:14.488Z,145398.06
2023-03-17T23:07:50.244Z,145417.47
2023-03-17T23:10:22.948Z,145398.06
2023-03-17T23:12:51.007Z,145383.50
2023-03-17T23:15:19.623Z,145388.34
2023-03-17T23:17:47.383Z,145297.31
2023-03-17T23:20:15.245Z,145354.34
2023-03-17T23:22:42.468Z,145364.03
2023-03-17T23:25:10.656Z,145384.69
2023-03-17T23:27:37.648Z,145423.53
2023-03-17T23:30:05.787Z,145424.78
2023-03-17T23:32:34.054Z,145378.59
2023-03-17T23:35:01.280Z,145383.50
2023-03-17T23:37:28.401Z,145347.09
2023-03-17T23:39:56.135Z,145355.53
2023-03-17T23:42:23.134Z,145348.28
2023-03-17T23:44:50.327Z,145355.53
2023-03-17T23:47:17.930Z,145331.28
2023-03-17T23:49:44.941Z,145359.19
2023-03-17T23:52:12.158Z,145351.94
2023-03-17T23:54:39.628Z,145291.22
2023-03-17T23:57:07.685Z,145356.78
2023-03-17T23:59:34.893Z,145387.09
